createdAt,value
2018-09-13T00:01:06.133Z,7.87
2018-09-13T00:03:34.670Z,10.63
2018-09-13T00:06:03.540Z,9.73
2018-09-13T00:08:32.040Z,7.47
2018-09-13T00:11:00.588Z,6.10
2018-09-13T00:13:29.103Z,8.27
2018-09-13T00:15:57.616Z,6.73
2018-09-13T00:18:26.318Z,7.43
2018-09-13T00:20:55.040Z,7.17
2018-09-13T00:23:23.498Z,7.47
2018-09-13T00:25:52.124Z,8.00
2018-09-13T00:28:20.644Z,6.80
2018-09-13T00:30:49.142Z,7.47
2018-09-13T00:33:17.828Z,7.33
2018-09-13T00:35:46.550Z,6.70
2018-09-13T00:38:15.644Z,6.60
2018-09-13T00:40:44.164Z,7.70
2018-09-13T00:43:12.668Z,7.80
2018-09-13T00:45:41.248Z,9.40
2018-09-13T00:48:09.844Z,7.80
2018-09-13T00:50:38.648Z,13.03
2018-09-13T00:53:07.680Z,10.20
2018-09-13T00:55:36.208Z,12.60
2018-09-13T00:58:05.414Z,9.43
2018-09-13T01:00:33.999Z,16.63
2018-09-13T01:03:02.554Z,9.47
2018-09-13T01:05:31.345Z,10.80
2018-09-13T01:07:59.897Z,10.93
2018-09-13T01:10:28.445Z,13.70
2018-09-13T01:12:57.117Z,14.00
2018-09-13T01:15:26.045Z,15.07
2018-09-13T01:17:54.909Z,15.47
2018-09-13T01:20:23.774Z,12.10
2018-09-13T01:22:52.911Z,14.63
2018-09-13T01:25:21.407Z,12.33
2018-09-13T01:27:49.961Z,15.80
2018-09-13T01:30:18.587Z,12.97
2018-09-13T01:32:47.212Z,16.73
2018-09-13T01:35:15.913Z,12.43
2018-09-13T01:37:44.414Z,15.47
2018-09-13T01:40:12.911Z,12.97
2018-09-13T01:42:41.480Z,12.67
2018-09-13T01:45:09.978Z,12.80
2018-09-13T01:47:38.610Z,12.80
2018-09-13T01:50:07.400Z,13.67
2018-09-13T01:52:35.888Z,14.50
2018-09-13T01:55:04.414Z,12.77
2018-09-13T01:57:32.953Z,15.20
2018-09-13T02:00:01.597Z,14.20
2018-09-13T02:02:30.156Z,14.43
2018-09-13T02:04:58.666Z,17.63
2018-09-13T02:07:27.576Z,12.77
2018-09-13T02:09:56.373Z,16.07
2018-09-13T02:12:24.990Z,13.07
2018-09-13T02:14:53.610Z,13.73
2018-09-13T02:17:22.146Z,14.17
2018-09-13T02:19:50.687Z,13.50
2018-09-13T02:22:19.226Z,13.83
2018-09-13T02:24:48.082Z,18.43
2018-09-13T02:27:16.608Z,15.10
2018-09-13T02:29:46.640Z,13.53
2018-09-13T02:32:15.165Z,19.80
2018-09-13T02:34:43.759Z,12.77
2018-09-13T02:37:12.495Z,14.90
2018-09-13T02:39:41.313Z,13.77
2018-09-13T02:42:10.189Z,14.97
2018-09-13T02:44:38.783Z,15.63
2018-09-13T02:47:07.395Z,12.70
2018-09-13T02:49:35.941Z,13.37
2018-09-13T02:52:04.517Z,14.30
2018-09-13T02:54:33.049Z,12.63
2018-09-13T02:57:02.956Z,11.67
2018-09-13T02:59:31.485Z,11.00
2018-09-13T03:02:00.272Z,14.33
2018-09-13T03:04:28.927Z,16.03
2018-09-13T03:06:58.353Z,16.53
2018-09-13T03:09:26.877Z,17.93
2018-09-13T03:11:55.448Z,18.77
2018-09-13T03:14:23.981Z,16.10
2018-09-13T03:16:52.569Z,16.07
2018-09-13T03:19:21.545Z,14.60
2018-09-13T03:21:50.100Z,18.63
2018-09-13T03:24:18.777Z,17.07
2018-09-13T03:26:47.447Z,16.40
2018-09-13T03:29:16.001Z,16.83
2018-09-13T03:31:44.548Z,15.57
2018-09-13T03:34:13.062Z,16.73
2018-09-13T03:36:41.728Z,12.73
2018-09-13T03:39:12.026Z,12.93
2018-09-13T03:41:40.570Z,12.80
2018-09-13T03:44:09.732Z,14.20
2018-09-13T03:46:38.470Z,11.07
2018-09-13T03:49:07.026Z,11.13
2018-09-13T03:51:35.718Z,11.93
2018-09-13T03:54:04.223Z,10.60
2018-09-13T03:56:32.776Z,9.53
2018-09-13T03:59:01.317Z,11.43
2018-09-13T04:01:29.910Z,8.60
2018-09-13T04:03:58.499Z,8.90
2018-09-13T04:06:27.002Z,9.07
2018-09-13T04:08:55.580Z,13.07
2018-09-13T04:11:24.117Z,12.33
2018-09-13T04:13:53.481Z,8.47
2018-09-13T04:16:22.541Z,9.97
2018-09-13T04:18:51.437Z,7.67
2018-09-13T04:21:19.866Z,9.47
2018-09-13T04:23:48.499Z,8.47
2018-09-13T04:26:17.042Z,7.47
2018-09-13T04:28:45.577Z,7.43
2018-09-13T04:31:14.125Z,10.70
2018-09-13T04:33:42.591Z,8.33
2018-09-13T04:36:11.224Z,7.93
2018-09-13T04:38:39.667Z,8.13
2018-09-13T04:41:08.847Z,8.17
2018-09-13T04:43:37.932Z,9.93
2018-09-13T04:46:08.752Z,7.17
2018-09-13T04:48:37.887Z,7.70
2018-09-13T04:51:06.856Z,9.20
2018-09-13T04:53:35.459Z,7.40
2018-09-13T04:56:04.491Z,5.83
2018-09-13T04:58:35.587Z,7.20
2018-09-13T05:01:04.114Z,7.07
2018-09-13T05:03:32.618Z,7.27
2018-09-13T05:06:01.098Z,6.00
2018-09-13T05:08:29.588Z,6.13
2018-09-13T05:10:58.100Z,6.57
2018-09-13T05:13:26.895Z,5.60
2018-09-13T05:15:55.450Z,5.47
2018-09-13T05:18:24.028Z,6.23
2018-09-13T05:20:52.516Z,3.90
2018-09-13T05:23:21.018Z,8.03
2018-09-13T05:25:50.427Z,6.43
2018-09-13T05:28:18.991Z,4.47
2018-09-13T05:30:47.547Z,5.17
2018-09-13T05:33:16.029Z,5.40
2018-09-13T05:35:44.526Z,6.53
2018-09-13T05:38:13.091Z,5.40
2018-09-13T05:40:41.703Z,7.07
2018-09-13T05:43:10.227Z,6.20
2018-09-13T05:45:38.778Z,6.40
2018-09-13T05:48:07.291Z,6.30
2018-09-13T05:50:35.996Z,5.87
2018-09-13T05:53:04.772Z,7.60
2018-09-13T05:55:33.293Z,7.50
2018-09-13T05:58:01.854Z,6.13
2018-09-13T06:00:30.633Z,5.20
2018-09-13T06:02:59.232Z,4.83
2018-09-13T06:05:27.726Z,5.87
2018-09-13T06:07:56.227Z,4.53
2018-09-13T06:10:24.853Z,5.70
2018-09-13T06:12:53.557Z,5.10
2018-09-13T06:15:22.331Z,8.97
2018-09-13T06:17:50.839Z,7.97
2018-09-13T06:20:19.381Z,7.37
2018-09-13T06:22:47.914Z,5.60
2018-09-13T06:25:16.433Z,6.83
2018-09-13T06:27:44.941Z,6.87
2018-09-13T06:30:13.492Z,7.07
2018-09-13T06:32:42.243Z,6.47
2018-09-13T06:35:10.824Z,9.00
2018-09-13T06:37:39.507Z,4.50
2018-09-13T06:40:08.132Z,4.73
2018-09-13T06:42:36.998Z,7.43
2018-09-13T06:45:06.150Z,6.83
2018-09-13T06:47:34.942Z,6.90
2018-09-13T06:50:03.951Z,8.23
2018-09-13T06:52:32.702Z,4.50
2018-09-13T06:55:01.239Z,9.93
2018-09-13T06:57:29.757Z,6.70
2018-09-13T06:59:58.276Z,10.97
2018-09-13T07:02:27.104Z,7.80
2018-09-13T07:04:55.657Z,6.93
2018-09-13T07:07:24.194Z,5.47
2018-09-13T07:09:52.930Z,6.47
2018-09-13T07:12:21.773Z,5.80
2018-09-13T07:14:50.289Z,6.37
2018-09-13T07:17:18.892Z,5.53
2018-09-13T07:19:47.460Z,6.60
2018-09-13T07:22:16.027Z,4.63
2018-09-13T07:24:44.596Z,5.27
2018-09-13T07:27:13.998Z,8.50
2018-09-13T07:29:42.705Z,7.27
2018-09-13T07:32:11.259Z,5.57
2018-09-13T07:34:40.264Z,7.17
2018-09-13T07:37:09.173Z,5.73
2018-09-13T07:39:37.729Z,4.07
2018-09-13T07:42:06.517Z,7.13
2018-09-13T07:44:35.704Z,7.47
2018-09-13T07:47:04.429Z,7.77
2018-09-13T07:49:33.129Z,10.40
2018-09-13T07:52:01.965Z,6.70
2018-09-13T07:54:33.476Z,7.47
2018-09-13T07:57:02.081Z,5.43
2018-09-13T07:59:30.604Z,5.67
2018-09-13T08:01:59.253Z,7.37
2018-09-13T08:04:28.024Z,8.43
2018-09-13T08:06:56.600Z,9.87
2018-09-13T08:09:25.367Z,5.80
2018-09-13T08:11:54.041Z,7.93
2018-09-13T08:14:23.325Z,4.63
2018-09-13T08:16:52.133Z,6.63
2018-09-13T08:19:20.634Z,7.93
2018-09-13T08:21:49.242Z,4.87
2018-09-13T08:24:17.735Z,7.60
2018-09-13T08:26:46.745Z,10.27
2018-09-13T08:29:15.860Z,4.20
2018-09-13T08:31:44.360Z,8.47
2018-09-13T08:34:13.046Z,8.87
2018-09-13T08:36:41.611Z,6.23
2018-09-13T08:39:11.679Z,9.80
2018-09-13T08:41:40.168Z,9.77
2018-09-13T08:44:08.670Z,7.77
2018-09-13T08:46:37.235Z,9.77
2018-09-13T08:49:05.827Z,7.00
2018-09-13T08:51:34.878Z,4.80
2018-09-13T08:54:03.682Z,7.30
2018-09-13T08:56:32.191Z,8.03
2018-09-13T08:59:00.896Z,6.80
2018-09-13T09:01:29.555Z,8.17
2018-09-13T09:03:58.051Z,8.63
2018-09-13T09:06:27.116Z,10.63
2018-09-13T09:08:55.921Z,8.57
2018-09-13T09:11:24.478Z,5.90
2018-09-13T09:13:53.076Z,7.60
2018-09-13T09:16:21.809Z,6.30
2018-09-13T09:18:50.371Z,5.67
2018-09-13T09:21:18.926Z,6.93
2018-09-13T09:23:47.417Z,9.10
2018-09-13T09:26:16.865Z,6.93
2018-09-13T09:28:45.700Z,5.60
2018-09-13T09:31:14.243Z,8.83
2018-09-13T09:33:42.806Z,8.33
2018-09-13T09:36:11.473Z,5.93
2018-09-13T09:38:39.993Z,6.30
2018-09-13T09:41:08.550Z,8.97
2018-09-13T09:43:37.311Z,6.87
2018-09-13T09:46:06.196Z,5.37
2018-09-13T09:48:34.814Z,4.37
2018-09-13T09:51:04.049Z,5.23
2018-09-13T09:53:32.583Z,4.90
2018-09-13T09:56:01.451Z,8.73
2018-09-13T09:58:31.068Z,6.43
2018-09-13T10:01:05.199Z,4.60
2018-09-13T10:03:34.170Z,5.53
2018-09-13T10:06:02.769Z,4.57
2018-09-13T10:08:31.595Z,3.20
2018-09-13T10:11:00.759Z,6.40
2018-09-13T10:13:29.410Z,5.30
2018-09-13T10:16:03.406Z,4.03
2018-09-13T10:18:37.340Z,4.80
2018-09-13T10:21:11.202Z,6.57
2018-09-13T10:23:45.918Z,4.03
2018-09-13T10:26:20.202Z,5.27
2018-09-13T10:28:54.029Z,5.07
2018-09-13T10:31:27.956Z,3.90
2018-09-13T10:34:01.825Z,5.40
2018-09-13T10:36:35.772Z,5.80
2018-09-13T10:39:12.639Z,4.87
2018-09-13T10:41:46.447Z,9.87
2018-09-13T10:44:20.197Z,5.43
2018-09-13T10:46:54.289Z,4.83
2018-09-13T10:49:28.237Z,5.30
2018-09-13T10:52:03.852Z,7.20
2018-09-13T10:54:46.900Z,5.80
2018-09-13T10:57:20.877Z,5.83
2018-09-13T10:59:49.615Z,6.10
2018-09-13T11:02:18.294Z,4.87
2018-09-13T11:04:46.807Z,6.83
2018-09-13T11:07:16.501Z,5.43
2018-09-13T11:09:45.067Z,4.13
2018-09-13T11:12:13.570Z,3.20
2018-09-13T11:14:56.284Z,5.00
2018-09-13T11:17:25.781Z,5.07
2018-09-13T11:19:54.590Z,5.33
2018-09-13T11:22:23.536Z,5.40
2018-09-13T11:24:52.090Z,3.40
2018-09-13T11:27:20.718Z,3.90
2018-09-13T11:29:49.220Z,5.30
2018-09-13T11:32:17.741Z,6.43
2018-09-13T11:34:46.295Z,6.17
2018-09-13T11:37:14.914Z,3.37
2018-09-13T11:39:43.497Z,5.30
2018-09-13T11:42:12.276Z,3.33
2018-09-13T11:44:40.874Z,7.17
2018-09-13T11:47:09.459Z,4.53
2018-09-13T11:49:38.053Z,5.53
2018-09-13T11:52:06.744Z,5.67
2018-09-13T11:54:35.250Z,5.77
2018-09-13T11:57:03.770Z,6.40
2018-09-13T11:59:32.419Z,6.07
2018-09-13T12:02:01.100Z,4.77
2018-09-13T12:04:29.612Z,4.00
2018-09-13T12:06:58.114Z,7.53
2018-09-13T12:09:28.848Z,4.37
2018-09-13T12:11:57.330Z,5.17
2018-09-13T12:14:26.050Z,3.63
2018-09-13T12:16:54.853Z,3.20
2018-09-13T12:19:23.373Z,3.17
2018-09-13T12:21:51.935Z,3.40
2018-09-13T12:24:20.453Z,3.97
2018-09-13T12:26:49.570Z,2.87
2018-09-13T12:29:18.056Z,5.00
2018-09-13T12:31:46.551Z,4.90
2018-09-13T12:34:15.107Z,4.13
2018-09-13T12:36:43.799Z,4.17
2018-09-13T12:39:13.349Z,4.17
2018-09-13T12:41:42.381Z,7.80
2018-09-13T12:44:11.625Z,5.63
2018-09-13T12:46:40.182Z,3.97
2018-09-13T12:49:08.710Z,3.97
2018-09-13T12:51:37.215Z,5.07
2018-09-13T12:54:06.285Z,6.83
2018-09-13T12:56:34.866Z,4.13
2018-09-13T12:59:03.526Z,5.17
2018-09-13T13:01:32.075Z,4.50
2018-09-13T13:04:00.822Z,4.20
2018-09-13T13:06:29.310Z,3.47
2018-09-13T13:08:58.040Z,2.60
2018-09-13T13:11:26.836Z,4.43
2018-09-13T13:13:55.531Z,4.90
2018-09-13T13:16:24.480Z,4.20
2018-09-13T13:18:53.223Z,4.50
2018-09-13T13:21:21.725Z,6.80
2018-09-13T13:23:50.229Z,6.03
2018-09-13T13:26:18.797Z,4.80
2018-09-13T13:28:47.322Z,5.37
2018-09-13T13:31:15.931Z,4.00
2018-09-13T13:33:46.422Z,4.87
2018-09-13T13:36:15.071Z,5.07
2018-09-13T13:38:43.608Z,6.60
2018-09-13T13:41:12.191Z,4.53
2018-09-13T13:43:40.698Z,4.57
2018-09-13T13:46:09.576Z,4.07
2018-09-13T13:48:38.981Z,4.07
2018-09-13T13:51:07.574Z,5.30
2018-09-13T13:53:36.395Z,7.47
2018-09-13T13:56:05.284Z,3.27
2018-09-13T13:58:34.019Z,4.43
2018-09-13T14:01:03.703Z,5.20
2018-09-13T14:03:32.442Z,6.40
2018-09-13T14:06:01.049Z,4.60
2018-09-13T14:08:29.551Z,3.83
2018-09-13T14:10:58.418Z,5.03
2018-09-13T14:13:26.990Z,4.73
2018-09-13T14:15:55.602Z,4.33
2018-09-13T14:18:24.327Z,5.83
2018-09-13T14:20:52.945Z,3.67
2018-09-13T14:23:21.434Z,4.70
2018-09-13T14:25:50.177Z,5.50
2018-09-13T14:28:19.022Z,4.43
2018-09-13T14:30:47.576Z,3.93
2018-09-13T14:33:16.303Z,3.50
2018-09-13T14:35:45.799Z,3.00
2018-09-13T14:38:14.467Z,5.83
2018-09-13T14:40:43.278Z,4.13
2018-09-13T14:43:12.448Z,3.53
2018-09-13T14:45:41.212Z,2.87
2018-09-13T14:48:09.840Z,5.13
2018-09-13T14:50:38.328Z,3.77
2018-09-13T14:53:08.920Z,4.27
2018-09-13T14:55:37.496Z,3.33
2018-09-13T14:58:06.505Z,6.77
2018-09-13T15:00:34.987Z,4.33
2018-09-13T15:03:03.596Z,3.40
2018-09-13T15:05:32.769Z,4.53
2018-09-13T15:08:01.256Z,6.63
2018-09-13T15:11:59.413Z,4.67
2018-09-13T15:14:29.473Z,4.73
2018-09-13T15:16:59.141Z,3.63
2018-09-13T15:19:28.837Z,6.30
2018-09-13T15:21:58.359Z,5.73
2018-09-13T15:24:27.097Z,4.03
2018-09-13T15:26:56.110Z,2.83
2018-09-13T15:29:24.637Z,5.07
2018-09-13T15:31:53.327Z,7.10
2018-09-13T15:34:21.869Z,9.63
2018-09-13T15:36:50.430Z,5.17
2018-09-13T15:39:18.961Z,3.73
2018-09-13T15:41:47.483Z,11.67
2018-09-13T15:44:16.065Z,6.00
2018-09-13T15:46:44.631Z,3.50
2018-09-13T15:49:13.851Z,5.07
2018-09-13T15:51:42.406Z,15.57
2018-09-13T15:54:12.861Z,14.43
2018-09-13T15:56:41.499Z,7.03
2018-09-13T15:59:31.887Z,4.17
2018-09-13T16:02:07.347Z,4.80
2018-09-13T16:04:40.123Z,7.07
2018-09-13T16:07:09.991Z,3.17
2018-09-13T16:09:40.518Z,4.90
2018-09-13T16:12:09.329Z,6.17
2018-09-13T16:14:38.156Z,4.80
2018-09-13T16:17:06.689Z,15.73
2018-09-13T16:19:35.384Z,6.07
2018-09-13T16:22:03.909Z,4.13
2018-09-13T16:24:32.408Z,5.57
2018-09-13T16:27:03.780Z,11.03
2018-09-13T16:47:59.602Z,8.67
2018-09-13T16:50:28.500Z,8.13
2018-09-13T16:52:57.109Z,9.60
2018-09-13T16:55:26.030Z,7.13
2018-09-13T16:57:54.758Z,7.20
2018-09-13T17:00:25.293Z,8.53
2018-09-13T17:02:54.316Z,4.70
2018-09-13T17:05:23.078Z,3.43
2018-09-13T17:07:51.923Z,8.63
2018-09-13T17:11:49.798Z,9.13
2018-09-13T17:14:18.473Z,8.47
2018-09-13T17:16:46.967Z,6.00
2018-09-13T17:19:15.708Z,3.97
2018-09-13T17:21:44.198Z,6.33
2018-09-13T17:24:13.464Z,7.93
2018-09-13T17:26:42.026Z,6.13
2018-09-13T17:29:10.684Z,7.80
2018-09-13T17:31:39.478Z,5.43
2018-09-13T17:34:08.029Z,5.27
2018-09-13T17:36:36.740Z,9.80
2018-09-13T17:39:10.902Z,6.10
2018-09-13T17:41:39.485Z,4.93
2018-09-13T17:44:08.994Z,5.67
2018-09-13T17:46:38.130Z,4.67
2018-09-13T17:49:06.661Z,5.97
2018-09-13T17:51:36.139Z,4.77
2018-09-13T17:54:04.650Z,7.07
2018-09-13T17:56:33.209Z,5.00
2018-09-13T17:59:01.909Z,6.03
2018-09-13T18:01:31.251Z,6.73
2018-09-13T18:03:59.847Z,5.93
2018-09-13T18:06:28.518Z,5.03
2018-09-13T18:08:57.206Z,7.07
2018-09-13T18:11:25.895Z,3.63
2018-09-13T18:13:54.589Z,5.43
2018-09-13T18:16:23.178Z,5.27
2018-09-13T18:18:51.835Z,4.37
2018-09-13T18:21:20.372Z,4.80
2018-09-13T18:23:49.753Z,3.43
2018-09-13T18:26:19.025Z,5.60
2018-09-13T18:28:49.445Z,5.13
2018-09-13T18:31:18.218Z,6.40
2018-09-13T18:33:47.071Z,6.93
2018-09-13T18:36:17.053Z,5.87
2018-09-13T18:38:45.792Z,5.63
2018-09-13T18:41:14.304Z,4.20
2018-09-13T18:43:42.861Z,3.57
2018-09-13T18:46:11.370Z,3.93
2018-09-13T18:48:39.923Z,6.00
2018-09-13T18:51:08.438Z,6.97
2018-09-13T18:53:37.041Z,7.17
2018-09-13T18:56:06.495Z,5.90
2018-09-13T18:58:35.106Z,9.03
2018-09-13T19:01:03.678Z,15.23
2018-09-13T19:03:32.274Z,12.27
2018-09-13T19:06:01.187Z,10.63
2018-09-13T19:08:29.834Z,12.40
2018-09-13T19:10:59.027Z,8.03
2018-09-13T19:13:27.829Z,5.07
2018-09-13T19:15:56.640Z,7.10
2018-09-13T19:18:25.189Z,9.97
2018-09-13T19:20:53.696Z,7.37
2018-09-13T19:23:22.201Z,6.33
2018-09-13T19:25:50.750Z,9.03
2018-09-13T19:28:19.538Z,6.63
2018-09-13T19:30:48.111Z,7.97
2018-09-13T19:33:16.838Z,7.07
2018-09-13T19:35:45.380Z,8.47
2018-09-13T19:38:14.058Z,4.93
2018-09-13T19:40:42.601Z,8.30
2018-09-13T19:43:11.240Z,5.17
2018-09-13T19:45:39.958Z,6.23
2018-09-13T19:48:08.519Z,5.83
2018-09-13T19:50:37.388Z,7.03
2018-09-13T19:53:06.306Z,11.83
2018-09-13T19:55:34.894Z,7.63
2018-09-13T19:58:03.408Z,9.63
2018-09-13T20:00:31.917Z,6.90
2018-09-13T20:03:00.559Z,5.27
2018-09-13T20:05:29.165Z,7.13
2018-09-13T20:07:57.696Z,8.33
2018-09-13T20:10:26.382Z,6.90
2018-09-13T20:12:54.874Z,6.60
2018-09-13T20:15:23.414Z,6.40
2018-09-13T20:17:52.241Z,8.30
2018-09-13T20:20:20.747Z,7.13
2018-09-13T20:22:49.409Z,8.60
2018-09-13T20:25:18.285Z,9.60
2018-09-13T20:27:46.814Z,8.53
2018-09-13T20:47:32.727Z,6.67
2018-09-13T20:50:01.473Z,8.33
2018-09-13T20:52:29.997Z,9.70
2018-09-13T20:54:58.532Z,8.30
2018-09-13T20:57:27.295Z,8.10
2018-09-13T20:59:55.849Z,10.50
2018-09-13T21:02:24.404Z,10.83
2018-09-13T21:04:52.904Z,9.70
2018-09-13T21:07:21.437Z,9.97
2018-09-13T21:09:50.002Z,11.73
2018-09-13T21:12:18.817Z,8.30
2018-09-13T21:14:47.354Z,9.27
2018-09-13T21:17:16.024Z,8.90
2018-09-13T21:19:44.518Z,7.77
2018-09-13T21:22:13.381Z,9.97
2018-09-13T21:24:42.127Z,7.30
2018-09-13T21:27:10.745Z,7.97
2018-09-13T21:29:39.279Z,7.13
2018-09-13T21:32:07.802Z,9.90
2018-09-13T21:34:36.997Z,8.17
2018-09-13T21:37:05.600Z,6.93
2018-09-13T21:39:34.431Z,6.97
2018-09-13T21:42:02.953Z,6.20
2018-09-13T21:44:32.917Z,7.13
2018-09-13T21:47:01.236Z,6.60
2018-09-13T21:49:29.837Z,10.33
2018-09-13T21:52:01.078Z,9.37
2018-09-13T21:54:39.806Z,13.90
2018-09-13T21:57:08.388Z,10.73
2018-09-13T21:59:37.316Z,11.63
2018-09-13T22:02:07.145Z,13.83
2018-09-13T22:04:35.678Z,13.80
2018-09-13T22:07:04.398Z,15.73
2018-09-13T22:09:33.412Z,13.70
2018-09-13T22:12:03.471Z,11.50
2018-09-13T22:14:32.883Z,12.30
2018-09-13T22:17:01.616Z,11.50
2018-09-13T22:19:30.265Z,9.20
2018-09-13T22:21:58.816Z,10.63
2018-09-13T22:24:27.465Z,7.77
2018-09-13T22:26:56.001Z,9.13
2018-09-13T22:29:26.118Z,11.87
2018-09-13T22:31:54.758Z,9.23
2018-09-13T22:34:24.245Z,10.00
2018-09-13T22:36:52.784Z,10.53
2018-09-13T22:39:21.376Z,11.03
2018-09-13T22:41:50.594Z,9.93
2018-09-13T22:44:19.102Z,10.40
2018-09-13T22:46:47.615Z,13.27
2018-09-13T22:49:16.164Z,12.10
2018-09-13T22:51:44.724Z,13.37
2018-09-13T22:54:20.094Z,9.93
2018-09-13T22:56:48.846Z,9.40
2018-09-13T22:59:17.574Z,10.00
2018-09-13T23:01:46.236Z,9.27
2018-09-13T23:04:14.886Z,16.57
2018-09-13T23:06:43.752Z,9.03
2018-09-13T23:09:13.134Z,8.50
2018-09-13T23:11:41.661Z,8.60
2018-09-13T23:14:10.190Z,7.90
2018-09-13T23:16:38.765Z,8.23
2018-09-13T23:19:07.427Z,9.10
2018-09-13T23:21:35.982Z,9.10
2018-09-13T23:24:05.445Z,9.17
2018-09-13T23:26:33.979Z,8.87
2018-09-13T23:29:02.919Z,9.17
2018-09-13T23:31:31.817Z,9.93
2018-09-13T23:34:00.540Z,9.43
2018-09-13T23:36:29.325Z,9.03
2018-09-13T23:38:57.982Z,6.60
2018-09-13T23:41:26.645Z,5.70
2018-09-13T23:43:55.343Z,5.93
2018-09-13T23:46:24.139Z,5.90
2018-09-13T23:48:52.747Z,7.77
2018-09-13T23:51:21.468Z,6.50
2018-09-13T23:53:51.609Z,6.20
2018-09-13T23:56:20.413Z,9.03
2018-09-13T23:58:49.005Z,6.57
